Home > Products > Valid Products > MTR

000
SAUS42 KMLB 231155
MTRMCO
METAR KMCO 231153Z 36007KT 10SM FEW015 SCT250 17/14 A3000 RMK AO2
SLP158 T01670144 10189 20161 53009





000
SAUS42 KMLB 231054
MTRMCO
METAR KMCO 231053Z 35007KT 10SM SCT250 17/14 A2998 RMK AO2 SLP151
T01670144





000
SAUS42 KMLB 230955
MTRMCO
METAR KMCO 230953Z 36007KT 10SM SCT250 17/14 A2997 RMK AO2 SLP147
T01670144





000
SAUS42 KMLB 230955
MTRMCO
METAR KMCO 230953Z 36007KT 10SM SCT250 17/14 A2997 RMK AO2 SLP147
T01670144





000
SAUS42 KMLB 230854
MTRMCO
METAR KMCO 230853Z 36007KT 10SM BKN250 17/14 A2997 RMK AO2 SLP148
T01720144 56007





000
SAUS42 KMLB 230755
MTRMCO
METAR KMCO 230753Z 36007KT 10SM BKN250 18/14 A2998 RMK AO2 SLP149
T01780144





000
SAUS42 KMLB 230655
MTRMCO
METAR KMCO 230653Z 01008KT 10SM BKN250 18/14 A2998 RMK AO2 SLP150
T01830139





000
SAUS42 KMLB 230555
MTRMCO
METAR KMCO 230553Z 02008KT 10SM FEW020 BKN250 19/14 A2999 RMK AO2
SLP155 T01890139 10222 20183 56006





000
SAUS42 KMLB 230455
MTRMCO
METAR KMCO 230453Z 02008KT 10SM SCT250 19/15 A3000 RMK AO2 SLP156
T01890150 403000189





000
SAUS42 KMLB 230455
MTRMCO
METAR KMCO 230453Z 02008KT 10SM SCT250 19/15 A3000 RMK AO2 SLP156
T01890150 403000189





000
SAUS42 KMLB 230354
MTRMCO
METAR KMCO 230353Z 03008KT 10SM SCT250 19/16 A3000 RMK AO2 SLP158
T01940156





000
SAUS42 KMLB 230354
MTRMCO
METAR KMCO 230353Z 03008KT 10SM SCT250 19/16 A3000 RMK AO2 SLP158
T01940156





000
SAUS42 KMLB 230254
MTRMCO
METAR KMCO 230253Z 02008KT 10SM BKN300 20/16 A3001 RMK AO2 SLP161
T02000156 51010





000
SAUS42 KMLB 230155
MTRMCO
METAR KMCO 230153Z 03009KT 10SM BKN300 21/16 A3001 RMK AO2 SLP160
T02060156





000
SAUS42 KMLB 230155
MTRMCO
METAR KMCO 230153Z 03009KT 10SM BKN300 21/16 A3001 RMK AO2 SLP160
T02060156





000
SAUS42 KMLB 230055
MTRMCO
METAR KMCO 230053Z 03011KT 10SM SCT300 22/16 A3000 RMK AO2 SLP156
T02170161





000
SAUS42 KMLB 230055
MTRMCO
METAR KMCO 230053Z 03011KT 10SM SCT300 22/16 A3000 RMK AO2 SLP156
T02170161





000
SAUS42 KMLB 222355
MTRMCO
METAR KMCO 222353Z 03012KT 10SM FEW300 22/16 A2998 RMK AO2 SLP151
T02220161 10300 20222 53021





000
SAUS42 KMLB 222355
MTRMCO
METAR KMCO 222353Z 03012KT 10SM FEW300 22/16 A2998 RMK AO2 SLP151
T02220161 10300 20222 53021





000
SAUS42 KMLB 222255
MTRMCO
METAR KMCO 222253Z 04013KT 10SM FEW100 SCT300 24/17 A2996 RMK AO2
SLP142 T02390167





000
SAUS42 KMLB 222255
MTRMCO
METAR KMCO 222253Z 04013KT 10SM FEW100 SCT300 24/17 A2996 RMK AO2
SLP142 T02390167





000
SAUS42 KMLB 222154
MTRMCO
METAR KMCO 222153Z 06013KT 10SM FEW045 SCT300 26/18 A2994 RMK AO2
SLP136 T02610178





000
SAUS42 KMLB 222054
MTRMCO
METAR KMCO 222053Z 02007KT 10SM FEW040 SCT300 29/15 A2992 RMK AO2
SLP130 T02890150 56013





000
SAUS42 KMLB 221955
MTRMCO
METAR KMCO 221953Z VRB06KT 10SM FEW040 SCT300 29/14 A2992 RMK AO2
SLP131 T02940144





000
SAUS42 KMLB 221854
MTRMCO
METAR KMCO 221853Z 33007KT 10SM FEW040 SCT300 29/15 A2994 RMK AO2
SLP135 T02940150





000
SAUS42 KMLB 221755
MTRMCO
METAR KMCO 221753Z VRB06KT 10SM FEW040 SCT300 29/16 A2996 RMK AO2
SLP143 T02890161 10289 20206 58017





000
SAUS42 KMLB 221755
MTRMCO
METAR KMCO 221753Z VRB06KT 10SM FEW040 SCT300 29/16 A2996 RMK AO2
SLP143 T02890161 10289 20206 58017





000
SAUS42 KMLB 221655
MTRMCO
METAR KMCO 221653Z 32004KT 10SM SCT300 27/17 A2999 RMK AO2 SLP152
T02720167





000
SAUS42 KMLB 221655
MTRMCO
METAR KMCO 221653Z 32004KT 10SM SCT300 27/17 A2999 RMK AO2 SLP152
T02720167





000
SAUS42 KMLB 221555
MTRMCO
METAR KMCO 221553Z 04006KT 10SM BKN300 27/17 A3000 RMK AO2 SLP157
T02670167





000
SAUS42 KMLB 221555
MTRMCO
METAR KMCO 221553Z 04006KT 10SM BKN300 27/17 A3000 RMK AO2 SLP157
T02670167





000
SAUS42 KMLB 221454
MTRMCO
METAR KMCO 221453Z 02006KT 10SM FEW250 SCT300 26/17 A3001 RMK AO2
SLP159 T02610167 51011





000
SAUS42 KMLB 221355
MTRMCO
METAR KMCO 221353Z 01006KT 10SM FEW300 24/17 A3000 RMK AO2 SLP158
T02440167





000
SAUS42 KMLB 221254
MTRMCO
METAR KMCO 221253Z 36008KT 10SM R35L/5500VP6000FT FEW300 22/19 A2999
RMK AO2 SLP153 T02170189





000
SAUS42 KMLB 221154
MTRMCO
METAR KMCO 221153Z 36005KT 9SM FEW002 FEW150 FEW200 BKN300 21/19
A2997 RMK AO2 SLP148 T02060194 10217 20200 51012





000
SAUS42 KMLB 221129
MTRMCO
SPECI KMCO 221127Z 35005KT 3SM BR FEW002 FEW200 SCT300 20/20 A2997
RMK AO2 VIS E-S 2 1/2 T02000200





000
SAUS42 KMLB 221111
MTRMCO
SPECI KMCO 221110Z 36004KT 1 1/2SM BR FEW002 FEW200 SCT300 21/21
A2997 RMK AO2 VIS N-NE 3 T02060206





000
SAUS42 KMLB 221055
MTRMCO
METAR KMCO 221053Z 36004KT 1/4SM R35L/4000VP6000FT BR VV002 21/21
A2997 RMK AO2 SFC VIS 1 SLP145 VIS NE 1 1/2 T02110211





000
SAUS42 KMLB 221021
MTRMCO
SPECI KMCO 221019Z 36006KT 1/4SM R35L/2200V4000FT BR OVC004 21/21
A2996 RMK AO2 SFC VIS 1 1/4 T02110211





000
SAUS42 KMLB 220955
MTRMCO
METAR KMCO 220953Z 32005KT 2SM BKN004 21/21 A2995 RMK AO2 SFC VIS 10
SLP140 T02110211





000
SAUS42 KMLB 220955
MTRMCO
METAR KMCO 220953Z 32005KT 2SM BKN004 21/21 A2995 RMK AO2 SFC VIS 10
SLP140 T02110211





000
SAUS42 KMLB 220943
MTRMCO
SPECI KMCO 220942Z 29003KT 2SM BKN005 21/21 A2995 RMK AO2 SFC VIS 10
T02060206





000
SAUS42 KMLB 220943
MTRMCO
SPECI KMCO 220942Z 29003KT 2SM BKN005 21/21 A2995 RMK AO2 SFC VIS 10
T02060206





000
SAUS42 KMLB 220855
MTRMCO
METAR KMCO 220853Z 00000KT 1SM R35L/P6000FT BCFG BR FEW006 SCT250
21/21 A2994 RMK AO2 SFC VIS 6 SLP136 T02060206 55002





000
SAUS42 KMLB 220754
MTRMCO
METAR KMCO 220753Z 00000KT 1SM R35L/P6000FT FEW003 BKN250 21/21
A2993 RMK AO2 SFC VIS 7 SLP132 T02110211





000
SAUS42 KMLB 220741
MTRMCO
SPECI KMCO 220740Z 31004KT 1SM R35L/P6000FT SCT003 SCT250 21/21
A2993 RMK AO2 SFC VIS 7 T02110211





000
SAUS42 KMLB 220654
MTRMCO
METAR KMCO 220653Z 19003KT 1SM R35L/P6000FT BCFG OVC003 21/21 A2994
RMK AO2 SFC VIS 7 SLP136 T02110211





000
SAUS42 KMLB 220630
MTRMCO
SPECI KMCO 220628Z 19003KT 1SM R35L/P6000FT BCFG BKN003 21/21 A2994
RMK AO2 SFC VIS 7 T02110211





000
SAUS42 KMLB 220613
MTRMCO
SPECI KMCO 220611Z 00000KT 7SM BCFG BKN005 BKN250 21/21 A2994 RMK
AO2 T02060206





000
SAUS42 KMLB 220554
MTRMCO
METAR KMCO 220553Z 00000KT 10SM FEW007 BKN250 22/22 A2995 RMK AO2
SLP138 T02170217 10244 20211 58006





000
SAUS42 KMLB 220554
MTRMCO
METAR KMCO 220553Z 00000KT 10SM FEW007 BKN250 22/22 A2995 RMK AO2
SLP138 T02170217 10244 20211 58006





000
SAUS42 KMLB 220520
MTRMCO
SPECI KMCO 220518Z 00000KT 9SM FEW007 BKN250 21/21 A2995 RMK AO2
T02110211





000
SAUS42 KMLB 220520
MTRMCO
SPECI KMCO 220518Z 00000KT 9SM FEW007 BKN250 21/21 A2995 RMK AO2
T02110211





000
SAUS42 KMLB 220454
MTRMCO
METAR KMCO 220453Z 18003KT 10SM FEW015 BKN250 21/21 A2995 RMK AO2
SLP140 T02110211 402890200





000
SAUS42 KMLB 220454
MTRMCO
METAR KMCO 220453Z 18003KT 10SM FEW015 BKN250 21/21 A2995 RMK AO2
SLP140 T02110211 402890200





000
SAUS42 KMLB 220355
MTRMCO
METAR KMCO 220353Z 20003KT 10SM BKN250 22/21 A2996 RMK AO2 SLP143
T02170211





000
SAUS42 KMLB 220255
MTRMCO
METAR KMCO 220253Z 14004KT 10SM BKN250 23/22 A2996 RMK AO2 SLP145
T02280217 53008





000
SAUS42 KMLB 220255
MTRMCO
METAR KMCO 220253Z 14004KT 10SM BKN250 23/22 A2996 RMK AO2 SLP145
T02280217 53008





000
SAUS42 KMLB 220154
MTRMCO
METAR KMCO 220153Z 21003KT 10SM OVC260 23/22 A2996 RMK AO2 SLP142
T02330217





000
SAUS42 KMLB 220154
MTRMCO
METAR KMCO 220153Z 21003KT 10SM OVC260 23/22 A2996 RMK AO2 SLP142
T02330217





000
SAUS42 KMLB 220055
MTRMCO
METAR KMCO 220053Z 00000KT 10SM FEW035 OVC260 24/21 A2994 RMK AO2
SLP137 T02440211





000
SAUS42 KMLB 212354
MTRMCO
METAR KMCO 212353Z 05006KT 10SM SCT041 OVC260 24/22 A2994 RMK AO2
SLP136 T02440217 10283 20244 53010





000
SAUS42 KMLB 212254
MTRMCO
METAR KMCO 212253Z 00000KT 10SM FEW050 OVC260 26/21 A2992 RMK AO2
SLP129 T02560206





000
SAUS42 KMLB 212254
MTRMCO
METAR KMCO 212253Z 00000KT 10SM FEW050 OVC260 26/21 A2992 RMK AO2
SLP129 T02560206





000
SAUS42 KMLB 212154
MTRMCO
METAR KMCO 212153Z 18003KT 10SM FEW050 FEW220 OVC260 27/21 A2991 RMK
AO2 SLP126 T02670211





000
SAUS42 KMLB 212154
MTRMCO
METAR KMCO 212153Z 18003KT 10SM FEW050 FEW220 OVC260 27/21 A2991 RMK
AO2 SLP126 T02670211





000
SAUS42 KMLB 212054
MTRMCO
METAR KMCO 212053Z 17005KT 10SM SCT050 BKN210 OVC260 27/21 A2991 RMK
AO2 SLP126 T02720206 55007





000
SAUS42 KMLB 211955
MTRMCO
METAR KMCO 211953Z 15007KT 10SM SCT050 SCT210 OVC260 28/21 A2991 RMK
AO2 SLP126 T02780211





000
SAUS42 KMLB 211855
MTRMCO
METAR KMCO 211853Z 17005KT 10SM SCT045 SCT200 OVC250 28/21 A2992 RMK
AO2 SLP130 T02780211





000
SAUS42 KMLB 211754
MTRMCO
METAR KMCO 211753Z 18004KT 10SM SCT040 BKN250 28/19 A2993 RMK AO2
SLP133 T02830194 10289 20211 58018





000
SAUS42 KMLB 211655
MTRMCO
METAR KMCO 211653Z 21003KT 10SM SCT030 BKN250 28/21 A2995 RMK AO2
SLP139 T02830206





000
SAUS42 KMLB 211655
MTRMCO
METAR KMCO 211653Z 21003KT 10SM SCT030 BKN250 28/21 A2995 RMK AO2
SLP139 T02830206





000
SAUS42 KMLB 211555
MTRMCO
METAR KMCO 211553Z 00000KT 10SM FEW024 FEW080 BKN250 27/21 A2997 RMK
AO2 SLP146 T02670211





000
SAUS42 KMLB 211555
MTRMCO
METAR KMCO 211553Z 00000KT 10SM FEW024 FEW080 BKN250 27/21 A2997 RMK
AO2 SLP146 T02670211





000
SAUS42 KMLB 211455
MTRMCO
METAR KMCO 211453Z 22003KT 10SM FEW060 OVC250 25/22 A2998 RMK AO2
SLP151 T02500217 51007





000
SAUS42 KMLB 211354
MTRMCO
METAR KMCO 211353Z 00000KT 10SM FEW050 OVC250 24/22 A2998 RMK AO2
SLP149 T02390217





000
SAUS42 KMLB 211255
MTRMCO
METAR KMCO 211253Z 00000KT 10SM FEW050 SCT180 OVC250 23/21 A2997 RMK
AO2 SLP148 T02280206





000
SAUS42 KMLB 211154
MTRMCO
METAR KMCO 211153Z 00000KT 10SM FEW050 SCT170 OVC250 21/20 A2996 RMK
AO2 SLP144 T02110200 10228 20200 53010





000
SAUS42 KMLB 211154
MTRMCO
METAR KMCO 211153Z 00000KT 10SM FEW050 SCT170 OVC250 21/20 A2996 RMK
AO2 SLP144 T02110200 10228 20200 53010





000
SAUS42 KMLB 211055
MTRMCO
METAR KMCO 211053Z 00000KT 10SM FEW050 SCT140 BKN250 21/20 A2994 RMK
AO2 SLP137 T02110200





000
SAUS42 KMLB 211055
MTRMCO
METAR KMCO 211053Z 00000KT 10SM FEW050 SCT140 BKN250 21/20 A2994 RMK
AO2 SLP137 T02110200





000
SAUS42 KMLB 210955
MTRMCO
METAR KMCO 210953Z 00000KT 10SM FEW060 FEW140 OVC250 22/20 A2994 RMK
AO2 SLP136 T02170200





000
SAUS42 KMLB 210955
MTRMCO
METAR KMCO 210953Z 00000KT 10SM FEW060 FEW140 OVC250 22/20 A2994 RMK
AO2 SLP136 T02170200





    US Dept of Commerce
    National Oceanic and Atmospheric Administration
    National Weather Service
    1325 East West Highway
    Silver Spring, MD 20910
    Page Author: NWS Internet Services Team
Disclaimer
Information Quality
Credits
Glossary
Privacy Policy
Freedom of Information Act (FOIA)
About Us
Career Opportunities